Time;durP1;ratioP1;P1;durP2;ratioP2;P2;SDS_P1;SDS_P2;PMS_P1;PMS_P2;Temp;Humidity;BMP_temperature;BMP_pressure;BME280_temperature;BME280_humidity;BME280_pressure;Samples;Min_cycle;Max_cycle;Signal;HPM_P1;HPM_P2
2022/09/09 00:02:07;;;;;;;17.75;3.38;;;;;;;;;;5007086;28;20048;-64
2022/09/09 00:04:34;;;;;;;13.90;3.63;;;;;;;;;;4999744;28;20025;-64
2022/09/09 00:07:04;;;;;;;25.67;3.40;;;;;;;;;;4997065;28;20030;-64
2022/09/09 00:09:33;;;;;;;22.83;3.88;;;;;;;;;;5011195;28;20080;-64
2022/09/09 00:12:07;;;;;;;22.13;3.63;;;;;;;;;;5009627;28;20034;-64
2022/09/09 00:14:42;;;;;;;18.90;3.35;;;;;;;;;;5010146;28;20140;-64
2022/09/09 00:17:12;;;;;;;20.92;3.97;;;;;;;;;;5009205;28;20065;-64
2022/09/09 00:19:42;;;;;;;18.42;4.05;;;;;;;;;;5009124;28;20439;-64
2022/09/09 00:22:08;;;;;;;19.20;4.30;;;;;;;;;;5004231;28;20029;-64
2022/09/09 00:24:53;;;;;;;18.27;3.92;;;;;;;;;;5022937;28;20381;-64
2022/09/09 00:27:27;;;;;;;17.10;4.05;;;;;;;;;;5014816;28;20052;-64
2022/09/09 00:30:02;;;;;;;16.58;3.78;;;;;;;;;;5002613;28;20038;-64
2022/09/09 00:32:29;;;;;;;33.85;5.80;;;;;;;;;;5004083;28;20026;-64
2022/09/09 00:34:58;;;;;;;23.52;4.45;;;;;;;;;;5007851;28;20065;-64
2022/09/09 00:37:25;;;;;;;25.23;5.20;;;;;;;;;;5004786;28;20034;-64
2022/09/09 00:39:54;;;;;;;17.55;3.78;;;;;;;;;;5014042;28;20057;-64
2022/09/09 00:42:32;;;;;;;24.35;4.32;;;;;;;;;;5014376;28;20037;-65
2022/09/09 00:45:12;;;;;;;18.10;3.92;;;;;;;;;;5005136;28;20033;-65
2022/09/09 00:47:46;;;;;;;21.52;4.00;;;;;;;;;;5007022;28;20022;-65
2022/09/09 00:50:21;;;;;;;22.67;3.67;;;;;;;;;;5003710;28;20029;-65
2022/09/09 00:52:48;;;;;;;26.38;4.93;;;;;;;;;;5004590;28;20026;-65
2022/09/09 00:55:15;;;;;;;16.83;3.72;;;;;;;;;;5006740;28;20080;-65
2022/09/09 00:57:41;;;;;;;22.58;3.70;;;;;;;;;;5010565;28;20113;-65
2022/09/09 01:00:19;;;;;;;31.52;4.78;;;;;;;;;;5006018;28;20018;-65
2022/09/09 01:03:12;;;;;;;32.40;5.28;;;;;;;;;;5010316;28;20390;-65
2022/09/09 01:05:42;;;;;;;21.73;4.10;;;;;;;;;;5011826;28;20140;-65
2022/09/09 01:08:27;;;;;;;21.13;5.88;;;;;;;;;;5006540;28;20049;-65
2022/09/09 01:10:54;;;;;;;17.33;3.35;;;;;;;;;;5013898;28;20029;-65
2022/09/09 01:13:25;;;;;;;29.08;4.88;;;;;;;;;;5012417;28;20025;-65
2022/09/09 01:15:53;;;;;;;21.65;4.28;;;;;;;;;;5005193;28;20120;-65
2022/09/09 01:18:22;;;;;;;27.00;5.55;;;;;;;;;;5005151;28;20025;-65
2022/09/09 01:21:07;;;;;;;15.68;3.80;;;;;;;;;;5029437;28;20108;-65
2022/09/09 01:23:59;;;;;;;29.73;5.68;;;;;;;;;;5025778;28;20018;-65
2022/09/09 01:26:35;;;;;;;23.80;4.47;;;;;;;;;;5025014;28;20491;-65
2022/09/09 01:29:09;;;;;;;19.13;3.80;;;;;;;;;;5011867;28;20049;-65
2022/09/09 01:31:41;;;;;;;26.67;4.82;;;;;;;;;;5007748;28;20390;-65
2022/09/09 01:34:14;;;;;;;23.55;4.65;;;;;;;;;;5038452;28;20118;-65
2022/09/09 01:36:46;;;;;;;29.08;4.78;;;;;;;;;;4997383;28;20068;-65
2022/09/09 01:39:13;;;;;;;29.90;6.10;;;;;;;;;;5007431;28;20026;-65
2022/09/09 01:41:40;;;;;;;29.45;6.38;;;;;;;;;;5028951;28;20072;-65
2022/09/09 01:44:10;;;;;;;28.00;4.03;;;;;;;;;;5004890;28;20060;-65
2022/09/09 01:46:38;;;;;;;18.05;3.85;;;;;;;;;;5000764;28;20033;-65
2022/09/09 01:49:07;;;;;;;16.60;4.28;;;;;;;;;;5028925;28;20030;-65
2022/09/09 01:51:34;;;;;;;25.42;4.80;;;;;;;;;;5013699;28;20561;-65
2022/09/09 01:54:03;;;;;;;30.45;5.13;;;;;;;;;;5009219;28;20034;-65
2022/09/09 01:56:45;;;;;;;29.98;5.15;;;;;;;;;;5007919;28;20077;-65
2022/09/09 01:59:30;;;;;;;23.88;4.60;;;;;;;;;;5013820;28;20040;-65
2022/09/09 02:02:01;;;;;;;28.15;4.70;;;;;;;;;;5025450;28;20459;-65
2022/09/09 02:04:37;;;;;;;28.50;4.30;;;;;;;;;;5002310;28;20037;-65
2022/09/09 02:07:26;;;;;;;27.30;5.15;;;;;;;;;;5035267;28;20394;-65
2022/09/09 02:09:57;;;;;;;33.08;5.82;;;;;;;;;;5001016;28;20037;-65
2022/09/09 02:12:25;;;;;;;20.80;4.05;;;;;;;;;;4999805;28;20387;-65
2022/09/09 02:15:08;;;;;;;24.42;4.35;;;;;;;;;;4999476;28;20041;-65
2022/09/09 02:17:45;;;;;;;20.55;4.13;;;;;;;;;;5006598;28;20024;-65
2022/09/09 02:20:15;;;;;;;23.27;4.55;;;;;;;;;;5028612;28;20112;-65
2022/09/09 02:22:48;;;;;;;;;;;;;;;;;;5040740;28;20040;-65
2022/09/09 02:25:18;;;;;;;35.80;4.15;;;;;;;;;;5010929;28;19916;-64
2022/09/09 02:27:46;;;;;;;22.75;4.70;;;;;;;;;;5028854;28;20025;-64
2022/09/09 02:30:12;;;;;;;19.30;3.88;;;;;;;;;;5002835;28;20084;-65
2022/09/09 02:32:46;;;;;;;30.02;3.80;;;;;;;;;;5009692;28;20087;-65
2022/09/09 02:35:17;;;;;;;27.38;4.35;;;;;;;;;;5024934;28;20030;-65
2022/09/09 02:37:49;;;;;;;33.88;5.18;;;;;;;;;;5027565;28;20597;-65
2022/09/09 02:40:17;;;;;;;28.75;4.47;;;;;;;;;;5025604;28;20390;-65
2022/09/09 02:42:48;;;;;;;26.15;4.93;;;;;;;;;;5028093;28;20105;-65
2022/09/09 02:45:17;;;;;;;36.13;5.18;;;;;;;;;;5001897;28;20045;-65
2022/09/09 02:47:56;;;;;;;27.27;4.65;;;;;;;;;;5030072;28;20022;-65
2022/09/09 02:50:27;;;;;;;30.92;6.10;;;;;;;;;;5008360;28;20482;-65
2022/09/09 02:52:53;;;;;;;26.35;4.95;;;;;;;;;;5004623;28;20026;-65
2022/09/09 02:55:44;;;;;;;34.97;5.00;;;;;;;;;;5003350;28;20505;-64
2022/09/09 02:58:16;;;;;;;22.20;4.78;;;;;;;;;;5005963;28;20120;-64
2022/09/09 03:00:49;;;;;;;24.38;5.25;;;;;;;;;;5024662;28;20049;-64
2022/09/09 03:03:19;;;;;;;26.92;4.68;;;;;;;;;;5027272;28;20414;-64
2022/09/09 03:05:46;;;;;;;25.08;4.43;;;;;;;;;;5006776;28;20048;-64
2022/09/09 03:08:13;;;;;;;23.42;4.65;;;;;;;;;;5025113;28;20052;-64
2022/09/09 03:10:40;;;;;;;21.23;5.63;;;;;;;;;;4997475;28;20026;-64
2022/09/09 03:13:06;;;;;;;27.67;5.30;;;;;;;;;;5009103;28;20026;-64
2022/09/09 03:15:37;;;;;;;27.63;4.75;;;;;;;;;;5026550;28;20056;-64
2022/09/09 03:18:05;;;;;;;21.13;5.20;;;;;;;;;;4998224;28;20109;-64
2022/09/09 03:20:33;;;;;;;28.92;4.82;;;;;;;;;;5005694;28;20482;-64
2022/09/09 03:23:00;;;;;;;29.67;4.57;;;;;;;;;;5003500;28;20390;-64
2022/09/09 03:25:26;;;;;;;29.67;4.78;;;;;;;;;;5043585;28;20094;-64
2022/09/09 03:27:54;;;;;;;18.90;4.72;;;;;;;;;;5003399;28;20034;-64
2022/09/09 03:30:21;;;;;;;28.17;5.55;;;;;;;;;;5007001;28;20037;-64
2022/09/09 03:32:48;;;;;;;21.85;5.13;;;;;;;;;;5009881;28;20034;-64
2022/09/09 03:35:15;;;;;;;24.63;4.43;;;;;;;;;;5002857;28;20426;-64
2022/09/09 03:37:41;;;;;;;25.08;5.55;;;;;;;;;;5026964;28;20018;-64
2022/09/09 03:40:12;;;;;;;26.73;4.57;;;;;;;;;;5007973;28;20038;-64
2022/09/09 03:42:39;;;;;;;26.02;5.78;;;;;;;;;;5026983;28;20026;-64
2022/09/09 03:45:07;;;;;;;30.40;5.20;;;;;;;;;;5004391;28;20376;-64
2022/09/09 03:47:34;;;;;;;27.88;5.15;;;;;;;;;;5007539;28;20049;-64
2022/09/09 03:50:08;;;;;;;24.05;4.78;;;;;;;;;;5011514;28;20054;-64
2022/09/09 03:52:35;;;;;;;24.48;5.32;;;;;;;;;;4997330;28;20058;-64
2022/09/09 03:55:02;;;;;;;21.60;3.90;;;;;;;;;;5003254;28;20045;-64
2022/09/09 03:57:29;;;;;;;21.75;5.57;;;;;;;;;;5017808;28;20276;-64
2022/09/09 03:59:56;;;;;;;28.95;4.00;;;;;;;;;;5005538;28;20030;-64
2022/09/09 04:02:22;;;;;;;32.95;5.20;;;;;;;;;;5011103;28;20037;-64
2022/09/09 04:04:48;;;;;;;28.02;4.40;;;;;;;;;;5010660;28;20057;-64
2022/09/09 04:07:15;;;;;;;32.80;5.10;;;;;;;;;;5029825;28;20018;-64
2022/09/09 04:09:43;;;;;;;26.25;4.90;;;;;;;;;;5012623;28;20456;-64
2022/09/09 04:12:11;;;;;;;23.92;4.28;;;;;;;;;;5029126;28;20501;-64
2022/09/09 04:14:37;;;;;;;18.02;3.53;;;;;;;;;;5010781;28;20827;-64
2022/09/09 04:17:06;;;;;;;37.85;4.78;;;;;;;;;;5029023;28;20069;-64
2022/09/09 04:19:32;;;;;;;24.73;4.13;;;;;;;;;;5028095;28;20397;-64
2022/09/09 04:21:59;;;;;;;24.67;4.72;;;;;;;;;;5028928;28;20104;-64
2022/09/09 04:24:28;;;;;;;27.95;4.28;;;;;;;;;;5028212;28;20022;-64
2022/09/09 04:26:55;;;;;;;28.70;4.78;;;;;;;;;;5030697;28;20038;-64
2022/09/09 04:29:22;;;;;;;29.50;5.10;;;;;;;;;;5016566;28;20112;-64
2022/09/09 04:31:48;;;;;;;23.13;5.40;;;;;;;;;;5014941;28;20022;-64
2022/09/09 04:34:14;;;;;;;24.48;5.07;;;;;;;;;;5028642;28;20536;-64
2022/09/09 04:36:41;;;;;;;24.20;6.45;;;;;;;;;;5006235;28;20414;-64
2022/09/09 04:39:08;;;;;;;19.13;3.72;;;;;;;;;;5011745;28;20505;-64
2022/09/09 04:41:34;;;;;;;24.92;4.18;;;;;;;;;;5013866;28;20030;-64
2022/09/09 04:44:00;;;;;;;27.63;5.15;;;;;;;;;;5035942;28;20021;-64
2022/09/09 04:46:27;;;;;;;28.45;4.47;;;;;;;;;;5011787;28;20055;-64
2022/09/09 04:48:53;;;;;;;27.10;5.82;;;;;;;;;;5011560;28;20041;-64
2022/09/09 04:51:21;;;;;;;26.55;5.65;;;;;;;;;;5029952;28;20032;-64
2022/09/09 04:53:50;;;;;;;18.25;3.78;;;;;;;;;;5011771;28;20037;-64
2022/09/09 04:56:18;;;;;;;21.77;4.47;;;;;;;;;;5013064;28;20132;-64
2022/09/09 04:59:02;;;;;;;25.15;4.10;;;;;;;;;;5029943;28;20049;-65
2022/09/09 05:01:40;;;;;;;24.98;5.75;;;;;;;;;;5008679;28;20018;-65
2022/09/09 05:04:06;;;;;;;22.17;5.70;;;;;;;;;;5013676;28;20132;-65
2022/09/09 05:06:35;;;;;;;27.90;4.30;;;;;;;;;;5044238;28;20468;-65
2022/09/09 05:09:02;;;;;;;23.55;4.32;;;;;;;;;;5015841;28;20054;-65
2022/09/09 05:11:32;;;;;;;30.15;5.20;;;;;;;;;;5009802;28;20405;-65
2022/09/09 05:14:06;;;;;;;29.45;5.15;;;;;;;;;;5008477;28;20478;-65
2022/09/09 05:16:33;;;;;;;21.48;4.47;;;;;;;;;;5026711;28;20029;-65
2022/09/09 05:18:59;;;;;;;22.08;4.57;;;;;;;;;;5038243;28;20014;-65
2022/09/09 05:21:29;;;;;;;19.23;4.40;;;;;;;;;;5016847;28;20029;-65
2022/09/09 05:23:55;;;;;;;17.58;4.00;;;;;;;;;;5040033;28;20030;-65
2022/09/09 05:26:22;;;;;;;31.27;4.50;;;;;;;;;;5007296;28;20109;-65
2022/09/09 05:28:50;;;;;;;24.83;3.97;;;;;;;;;;5006106;28;20038;-65
2022/09/09 05:31:18;;;;;;;21.75;4.55;;;;;;;;;;5030060;28;20044;-63
2022/09/09 05:33:47;;;;;;;30.90;4.75;;;;;;;;;;5008338;28;20035;-64
2022/09/09 05:36:15;;;;;;;21.60;3.97;;;;;;;;;;5007019;28;20065;-64
2022/09/09 05:38:42;;;;;;;25.13;4.97;;;;;;;;;;5010598;28;20072;-64
2022/09/09 05:41:10;;;;;;;24.70;4.55;;;;;;;;;;5008434;28;20026;-64
2022/09/09 05:43:38;;;;;;;20.60;4.22;;;;;;;;;;5009878;28;20037;-64
2022/09/09 05:46:04;;;;;;;20.25;4.75;;;;;;;;;;5011111;28;20513;-64
2022/09/09 05:48:31;;;;;;;19.60;3.63;;;;;;;;;;5042468;28;20104;-64
2022/09/09 05:50:59;;;;;;;15.57;3.20;;;;;;;;;;5002938;28;20062;-69
2022/09/09 05:53:26;;;;;;;25.48;4.38;;;;;;;;;;5004627;28;20037;-64
2022/09/09 05:56:06;;;;;;;21.77;3.90;;;;;;;;;;5004992;28;20049;-64
2022/09/09 05:58:34;;;;;;;19.08;3.67;;;;;;;;;;5012414;28;20030;-64
2022/09/09 06:01:06;;;;;;;17.58;2.97;;;;;;;;;;5007210;28;20065;-64
2022/09/09 06:03:33;;;;;;;16.17;3.70;;;;;;;;;;5010517;28;20128;-64
2022/09/09 06:06:06;;;;;;;18.38;3.42;;;;;;;;;;5008250;28;20077;-64
2022/09/09 06:08:38;;;;;;;22.95;3.25;;;;;;;;;;5009923;28;20050;-64
2022/09/09 06:11:05;;;;;;;16.47;3.90;;;;;;;;;;5017475;28;20097;-64
2022/09/09 06:13:33;;;;;;;24.70;4.05;;;;;;;;;;4993568;28;20026;-64
2022/09/09 06:15:59;;;;;;;16.08;3.17;;;;;;;;;;5009433;28;20053;-64
2022/09/09 06:18:26;;;;;;;32.53;4.60;;;;;;;;;;4993168;28;20026;-64
2022/09/09 06:20:57;;;;;;;22.58;3.55;;;;;;;;;;5008567;28;20034;-64
2022/09/09 06:23:25;;;;;;;21.77;4.35;;;;;;;;;;5012295;28;20501;-64
2022/09/09 06:25:52;;;;;;;37.55;4.05;;;;;;;;;;5013675;28;20026;-64
2022/09/09 06:28:19;;;;;;;22.23;4.25;;;;;;;;;;5012036;28;20069;-64
2022/09/09 06:30:45;;;;;;;19.05;3.58;;;;;;;;;;5012167;28;20045;-64
2022/09/09 06:33:11;;;;;;;20.70;3.70;;;;;;;;;;5011967;28;20115;-64
2022/09/09 06:35:38;;;;;;;18.92;3.85;;;;;;;;;;5013706;28;20389;-64
2022/09/09 06:38:05;;;;;;;19.70;3.58;;;;;;;;;;5012164;28;20037;-64
2022/09/09 06:40:31;;;;;;;23.48;3.60;;;;;;;;;;5012262;28;20500;-64
2022/09/09 06:43:02;;;;;;;28.67;4.72;;;;;;;;;;5012143;28;20513;-64
2022/09/09 06:45:39;;;;;;;19.13;3.92;;;;;;;;;;5012139;28;20103;-64
2022/09/09 06:48:05;;;;;;;25.30;5.43;;;;;;;;;;5012095;28;20049;-64
2022/09/09 06:50:31;;;;;;;27.80;3.83;;;;;;;;;;5012179;28;20033;-64
2022/09/09 06:52:57;;;;;;;28.58;4.55;;;;;;;;;;5012096;28;20036;-64
2022/09/09 06:55:24;;;;;;;21.58;3.85;;;;;;;;;;5011855;28;20065;-64
2022/09/09 06:57:50;;;;;;;30.08;4.15;;;;;;;;;;5011758;28;20057;-64
2022/09/09 07:00:21;;;;;;;30.17;4.55;;;;;;;;;;5011865;28;20486;-64
2022/09/09 07:02:47;;;;;;;22.75;4.55;;;;;;;;;;5011859;28;20025;-64
2022/09/09 07:05:15;;;;;;;24.50;4.07;;;;;;;;;;5011704;28;20037;-64
2022/09/09 07:07:43;;;;;;;17.10;4.25;;;;;;;;;;5011587;28;20509;-64
2022/09/09 07:10:10;;;;;;;27.05;4.65;;;;;;;;;;5011461;28;20053;-64
2022/09/09 07:12:37;;;;;;;19.38;3.95;;;;;;;;;;5011340;28;20390;-64
2022/09/09 07:15:04;;;;;;;22.42;5.40;;;;;;;;;;5011292;28;20083;-64
2022/09/09 07:17:30;;;;;;;32.25;4.72;;;;;;;;;;5011420;28;20034;-64
2022/09/09 07:19:59;;;;;;;25.25;5.15;;;;;;;;;;5011673;28;20026;-64
2022/09/09 07:22:28;;;;;;;22.35;3.83;;;;;;;;;;5011448;28;20025;-64
2022/09/09 07:24:54;;;;;;;23.83;4.10;;;;;;;;;;5011351;28;20438;-64
2022/09/09 07:27:21;;;;;;;18.77;4.03;;;;;;;;;;5010888;28;20412;-64
2022/09/09 07:29:48;;;;;;;23.48;3.95;;;;;;;;;;5011607;28;20116;-65
2022/09/09 07:32:15;;;;;;;16.40;3.95;;;;;;;;;;5011264;28;20091;-65
2022/09/09 07:34:41;;;;;;;17.33;4.03;;;;;;;;;;5011336;28;20029;-64
2022/09/09 07:37:08;;;;;;;22.75;3.78;;;;;;;;;;5011137;28;20057;-65
2022/09/09 07:39:35;;;;;;;16.55;3.65;;;;;;;;;;5011255;28;20022;-65
2022/09/09 07:42:01;;;;;;;19.50;4.75;;;;;;;;;;5012425;28;20399;-65
2022/09/09 07:44:28;;;;;;;26.65;4.70;;;;;;;;;;5012446;28;20367;-64
2022/09/09 07:47:01;;;;;;;23.42;4.15;;;;;;;;;;5011380;28;20349;-64
2022/09/09 07:49:34;;;;;;;22.40;4.10;;;;;;;;;;5011150;28;20037;-64
2022/09/09 07:52:03;;;;;;;23.15;3.97;;;;;;;;;;5011165;28;20034;-65
2022/09/09 07:54:29;;;;;;;21.85;4.03;;;;;;;;;;5010874;28;20068;-64
2022/09/09 07:56:55;;;;;;;22.50;4.07;;;;;;;;;;5010797;28;20033;-64
2022/09/09 07:59:25;;;;;;;26.52;3.75;;;;;;;;;;5011049;28;20064;-64
2022/09/09 08:01:54;;;;;;;22.08;4.55;;;;;;;;;;5011189;28;20393;-64
2022/09/09 08:04:22;;;;;;;29.23;4.40;;;;;;;;;;5012162;28;20049;-64
2022/09/09 08:06:52;;;;;;;25.15;3.45;;;;;;;;;;5011105;28;20029;-64
2022/09/09 08:09:20;;;;;;;17.65;3.63;;;;;;;;;;5010600;28;20046;-64
2022/09/09 08:11:47;;;;;;;20.75;4.93;;;;;;;;;;5010867;28;20041;-65
2022/09/09 08:14:14;;;;;;;27.17;4.90;;;;;;;;;;5012111;28;20211;-65
2022/09/09 08:16:43;;;;;;;15.38;3.40;;;;;;;;;;5010732;28;20033;-65
2022/09/09 08:19:11;;;;;;;24.15;4.45;;;;;;;;;;5011083;28;20034;-65
2022/09/09 08:21:38;;;;;;;24.75;4.30;;;;;;;;;;5010766;28;20397;-65
2022/09/09 08:24:05;;;;;;;22.35;4.72;;;;;;;;;;5010760;28;20082;-65
2022/09/09 08:26:34;;;;;;;29.05;5.25;;;;;;;;;;5010764;28;20401;-65
2022/09/09 08:29:02;;;;;;;28.17;4.60;;;;;;;;;;5010878;28;20056;-65
2022/09/09 08:31:30;;;;;;;33.58;5.57;;;;;;;;;;4994577;28;20452;-65
2022/09/09 08:33:59;;;;;;;28.02;4.40;;;;;;;;;;5027218;28;20029;-65
2022/09/09 08:36:27;;;;;;;20.77;4.18;;;;;;;;;;5010515;28;20034;-65
2022/09/09 08:38:54;;;;;;;30.77;4.15;;;;;;;;;;5010634;28;20041;-65
2022/09/09 08:41:39;;;;;;;34.60;4.25;;;;;;;;;;5010472;28;20022;-65
2022/09/09 08:44:12;;;;;;;19.33;3.97;;;;;;;;;;5013310;28;20030;-65
2022/09/09 08:46:46;;;;;;;28.52;3.97;;;;;;;;;;5014363;28;20080;-64
2022/09/09 08:49:25;;;;;;;22.90;4.38;;;;;;;;;;5014424;28;20030;-64
2022/09/09 08:51:55;;;;;;;31.70;5.07;;;;;;;;;;5014278;28;20040;-65
2022/09/09 08:54:21;;;;;;;30.73;4.28;;;;;;;;;;5014020;28;20486;-65
2022/09/09 08:56:48;;;;;;;27.83;4.25;;;;;;;;;;5013858;28;20038;-65
2022/09/09 08:59:16;;;;;;;38.58;6.53;;;;;;;;;;5014188;28;20113;-65
2022/09/09 09:02:03;;;;;;;23.65;3.83;;;;;;;;;;5014104;28;20429;-65
2022/09/09 09:04:49;;;;;;;26.95;4.25;;;;;;;;;;5013761;28;20030;-65
2022/09/09 09:07:45;;;;;;;20.88;3.63;;;;;;;;;;5013835;28;20457;-65
2022/09/09 09:10:15;;;;;;;21.80;3.67;;;;;;;;;;5001753;28;20044;-65
2022/09/09 09:12:47;;;;;;;33.58;5.90;;;;;;;;;;5013719;28;20036;-65
2022/09/09 09:15:20;;;;;;;22.33;3.72;;;;;;;;;;5013960;28;20084;-65
2022/09/09 09:17:48;;;;;;;30.27;4.53;;;;;;;;;;5013764;28;20030;-65
2022/09/09 09:20:16;;;;;;;19.48;4.45;;;;;;;;;;5014021;28;20033;-65
2022/09/09 09:22:50;;;;;;;28.30;4.53;;;;;;;;;;5014617;28;20486;-65
2022/09/09 09:25:17;;;;;;;29.10;4.18;;;;;;;;;;5013642;28;20450;-65
2022/09/09 09:27:49;;;;;;;21.02;4.43;;;;;;;;;;5013605;28;20057;-65
2022/09/09 09:30:20;;;;;;;22.20;4.60;;;;;;;;;;5013483;28;20474;-65
2022/09/09 09:32:56;;;;;;;23.43;3.90;;;;;;;;;;5013376;28;20026;-65
2022/09/09 09:35:23;;;;;;;19.13;3.75;;;;;;;;;;5014847;28;20034;-65
2022/09/09 09:37:50;;;;;;;24.08;3.28;;;;;;;;;;5013305;28;20108;-64
2022/09/09 09:40:19;;;;;;;30.13;4.28;;;;;;;;;;5013176;28;20045;-65
2022/09/09 09:43:00;;;;;;;23.65;3.50;;;;;;;;;;5013184;28;20060;-65
2022/09/09 09:45:33;;;;;;;22.67;3.20;;;;;;;;;;5013102;28;20084;-65
2022/09/09 09:48:05;;;;;;;26.50;4.72;;;;;;;;;;5013283;28;20068;-65
2022/09/09 09:50:34;;;;;;;21.83;3.83;;;;;;;;;;5013258;28;20037;-65
2022/09/09 09:53:04;;;;;;;26.55;3.90;;;;;;;;;;5012999;28;20033;-65
2022/09/09 09:55:35;;;;;;;23.52;4.05;;;;;;;;;;5011845;28;20065;-65
2022/09/09 09:58:06;;;;;;;22.92;3.75;;;;;;;;;;5013121;28;20033;-65
2022/09/09 10:00:36;;;;;;;16.83;3.03;;;;;;;;;;5013043;28;20095;-65
2022/09/09 10:03:21;;;;;;;16.50;3.58;;;;;;;;;;5013016;28;20022;-64
2022/09/09 10:05:49;;;;;;;16.27;3.28;;;;;;;;;;5012553;28;20030;-65
2022/09/09 10:08:17;;;;;;;15.75;3.80;;;;;;;;;;5012650;28;20112;-65
2022/09/09 10:10:43;;;;;;;19.33;2.97;;;;;;;;;;5014013;28;20040;-65
2022/09/09 10:13:14;;;;;;;23.85;3.90;;;;;;;;;;5013986;28;20120;-65
2022/09/09 10:15:44;;;;;;;23.45;4.28;;;;;;;;;;5013869;28;20044;-65
2022/09/09 10:18:28;;;;;;;17.63;3.53;;;;;;;;;;5013953;28;20021;-65
2022/09/09 10:20:56;;;;;;;16.52;3.72;;;;;;;;;;5013552;28;20057;-65
2022/09/09 10:23:22;;;;;;;30.52;4.15;;;;;;;;;;5013802;28;20061;-65
2022/09/09 10:26:00;;;;;;;19.30;3.47;;;;;;;;;;5013633;28;20030;-64
2022/09/09 10:28:47;;;;;;;21.55;3.90;;;;;;;;;;5013796;28;20120;-65
2022/09/09 10:31:25;;;;;;;21.08;3.78;;;;;;;;;;5013997;28;20502;-65
2022/09/09 10:33:54;;;;;;;18.10;3.85;;;;;;;;;;5013608;28;20398;-64
2022/09/09 10:36:25;;;;;;;17.88;3.97;;;;;;;;;;5013309;28;20029;-65
2022/09/09 10:39:05;;;;;;;16.73;3.47;;;;;;;;;;5013323;28;20474;-65
2022/09/09 10:41:40;;;;;;;21.83;5.45;;;;;;;;;;5013498;28;20021;-65
2022/09/09 10:44:07;;;;;;;18.45;4.40;;;;;;;;;;5013498;28;20034;-65
2022/09/09 10:47:08;;;;;;;18.33;3.45;;;;;;;;;;5014047;28;20022;-65
2022/09/09 10:49:53;;;;;;;16.60;3.20;;;;;;;;;;4971885;28;20122;-64
2022/09/09 10:52:39;;;;;;;15.80;2.67;;;;;;;;;;4972021;28;20038;-64
2022/09/09 10:55:17;;;;;;;20.35;3.63;;;;;;;;;;4952744;29;20388;-65
2022/09/09 10:57:47;;;;;;;16.25;2.90;;;;;;;;;;4952580;29;20055;-64
2022/09/09 11:00:19;;;;;;;24.27;3.70;;;;;;;;;;4952636;28;20445;-64
2022/09/09 11:02:48;;;;;;;18.45;2.97;;;;;;;;;;4952384;29;20039;-65
2022/09/09 11:05:22;;;;;;;20.98;3.40;;;;;;;;;;4952517;28;20042;-64
2022/09/09 11:07:52;;;;;;;14.80;3.45;;;;;;;;;;4952275;29;20126;-64
2022/09/09 11:10:18;;;;;;;18.35;2.92;;;;;;;;;;4952592;28;20035;-64
2022/09/09 11:12:47;;;;;;;19.70;3.55;;;;;;;;;;4952032;29;20419;-64
2022/09/09 11:15:22;;;;;;;15.55;3.13;;;;;;;;;;4952582;28;20142;-64
2022/09/09 11:17:56;;;;;;;20.67;2.92;;;;;;;;;;4952435;29;20046;-64
2022/09/09 11:20:25;;;;;;;19.52;3.53;;;;;;;;;;4952091;29;20050;-65
2022/09/09 11:23:04;;;;;;;22.40;3.45;;;;;;;;;;4956467;28;20058;-65
2022/09/09 11:25:36;;;;;;;25.63;3.70;;;;;;;;;;4971774;28;20125;-64
2022/09/09 11:28:11;;;;;;;22.73;3.20;;;;;;;;;;4971573;28;20487;-64
2022/09/09 11:30:43;;;;;;;24.10;3.65;;;;;;;;;;4971675;28;20063;-64
2022/09/09 11:33:10;;;;;;;21.15;4.32;;;;;;;;;;5008951;28;20081;-64
2022/09/09 11:35:45;;;;;;;25.27;4.00;;;;;;;;;;5012394;28;20034;-64
2022/09/09 11:38:23;;;;;;;28.83;4.13;;;;;;;;;;5012706;28;20520;-64
2022/09/09 11:41:01;;;;;;;18.42;3.67;;;;;;;;;;5012507;28;20497;-64
2022/09/09 11:43:30;;;;;;;15.55;2.90;;;;;;;;;;5012689;28;20033;-65
2022/09/09 11:45:58;;;;;;;21.35;3.67;;;;;;;;;;5012412;28;20033;-65
2022/09/09 11:48:33;;;;;;;15.57;3.45;;;;;;;;;;5012234;28;20042;-65
2022/09/09 11:51:02;;;;;;;19.10;2.88;;;;;;;;;;5011030;28;20029;-65
2022/09/09 11:53:28;;;;;;;16.60;3.15;;;;;;;;;;5012520;28;20033;-65
2022/09/09 11:56:09;;;;;;;13.48;2.83;;;;;;;;;;5012365;28;20113;-64
2022/09/09 11:58:40;;;;;;;19.00;3.33;;;;;;;;;;5012502;28;20030;-65
2022/09/09 12:01:25;;;;;;;23.10;2.97;;;;;;;;;;5008904;28;20061;-65
2022/09/09 12:03:54;;;;;;;20.48;3.78;;;;;;;;;;5007655;28;20022;-64
2022/09/09 12:06:26;;;;;;;26.20;3.97;;;;;;;;;;4999342;28;20022;-64
2022/09/09 12:08:54;;;;;;;13.53;3.10;;;;;;;;;;5008014;28;20050;-65
2022/09/09 12:11:25;;;;;;;14.60;3.00;;;;;;;;;;5007069;28;20285;-65
2022/09/09 12:14:01;;;;;;;13.48;3.17;;;;;;;;;;5006664;28;20041;-65
2022/09/09 12:16:32;;;;;;;21.55;2.78;;;;;;;;;;5005775;28;20034;-65
2022/09/09 12:19:05;;;;;;;18.87;3.17;;;;;;;;;;5011028;28;20116;-65
2022/09/09 12:21:40;;;;;;;21.98;4.20;;;;;;;;;;5004997;28;20269;-65
2022/09/09 12:24:10;;;;;;;16.45;2.80;;;;;;;;;;5005722;28;20440;-65
2022/09/09 12:26:36;;;;;;;14.65;2.60;;;;;;;;;;5006007;28;20026;-65
2022/09/09 12:29:11;;;;;;;12.75;3.28;;;;;;;;;;5005212;28;20473;-65
2022/09/09 12:31:44;;;;;;;18.13;3.22;;;;;;;;;;5005861;28;20077;-65
2022/09/09 12:34:22;;;;;;;14.93;3.03;;;;;;;;;;5008178;28;20034;-64
2022/09/09 12:36:51;;;;;;;17.88;3.80;;;;;;;;;;5011128;28;20038;-65
2022/09/09 12:39:26;;;;;;;15.43;3.25;;;;;;;;;;5011139;28;20088;-64
2022/09/09 12:41:57;;;;;;;12.43;2.67;;;;;;;;;;5005477;28;20033;-65
2022/09/09 12:44:24;;;;;;;17.25;2.83;;;;;;;;;;5007880;28;20033;-65
2022/09/09 12:46:52;;;;;;;17.52;3.00;;;;;;;;;;5012623;28;20490;-65
2022/09/09 12:49:33;;;;;;;25.73;3.75;;;;;;;;;;5010667;28;20026;-65
2022/09/09 12:52:01;;;;;;;18.85;3.53;;;;;;;;;;5014051;28;20490;-65
2022/09/09 12:54:28;;;;;;;19.60;3.78;;;;;;;;;;5012110;28;20108;-65
2022/09/09 12:56:54;;;;;;;15.02;2.45;;;;;;;;;;5010834;28;20026;-65
2022/09/09 12:59:24;;;;;;;10.75;2.63;;;;;;;;;;5007544;28;20398;-64
2022/09/09 13:01:57;;;;;;;12.35;3.00;;;;;;;;;;5013057;28;20032;-65
2022/09/09 13:04:23;;;;;;;9.02;2.50;;;;;;;;;;5006505;28;20032;-65
2022/09/09 13:06:51;;;;;;;13.30;2.70;;;;;;;;;;5010829;28;20034;-65
2022/09/09 13:09:18;;;;;;;15.75;2.25;;;;;;;;;;5021059;28;20115;-65
2022/09/09 13:11:47;;;;;;;16.25;3.50;;;;;;;;;;5011713;28;20036;-65
2022/09/09 13:14:20;;;;;;;12.40;2.83;;;;;;;;;;5003727;28;20125;-64
2022/09/09 13:16:56;;;;;;;13.85;3.45;;;;;;;;;;5006160;28;20113;-65
2022/09/09 13:19:25;;;;;;;14.60;2.50;;;;;;;;;;5007646;28;20026;-64
2022/09/09 13:21:52;;;;;;;15.38;2.22;;;;;;;;;;5010352;28;20108;-64
2022/09/09 13:24:33;;;;;;;16.48;2.75;;;;;;;;;;5009097;28;20719;-65
2022/09/09 13:27:03;;;;;;;21.33;2.63;;;;;;;;;;5009507;28;20091;-64
2022/09/09 13:29:30;;;;;;;14.02;2.03;;;;;;;;;;5011267;28;20026;-65
2022/09/09 13:32:26;;;;;;;15.23;2.47;;;;;;;;;;5015064;28;20038;-65
2022/09/09 13:34:52;;;;;;;18.50;3.20;;;;;;;;;;5004202;28;20061;-65
2022/09/09 13:37:23;;;;;;;11.63;2.47;;;;;;;;;;5012802;28;20025;-65
2022/09/09 13:39:53;;;;;;;18.02;3.88;;;;;;;;;;5012795;28;20072;-65
2022/09/09 13:42:25;;;;;;;16.27;2.50;;;;;;;;;;5004514;28;20458;-65
2022/09/09 13:44:51;;;;;;;11.25;2.45;;;;;;;;;;5008879;28;20037;-65
2022/09/09 13:47:23;;;;;;;10.73;2.22;;;;;;;;;;5003976;28;20401;-65
2022/09/09 13:49:49;;;;;;;14.57;2.38;;;;;;;;;;5015410;28;20026;-65
2022/09/09 13:52:17;;;;;;;11.50;1.83;;;;;;;;;;5009700;28;20075;-65
2022/09/09 13:54:47;;;;;;;17.65;2.65;;;;;;;;;;5010809;28;20033;-65
2022/09/09 13:57:24;;;;;;;7.03;1.73;;;;;;;;;;5008805;28;20030;-65
2022/09/09 13:59:51;;;;;;;17.27;2.40;;;;;;;;;;5011831;28;20037;-65
2022/09/09 14:02:17;;;;;;;7.80;2.38;;;;;;;;;;5012498;28;20033;-64
2022/09/09 14:04:44;;;;;;;8.65;2.47;;;;;;;;;;5010952;28;20048;-65
2022/09/09 14:07:14;;;;;;;10.27;2.33;;;;;;;;;;5011733;28;20022;-65
2022/09/09 14:09:40;;;;;;;20.05;3.05;;;;;;;;;;5012624;28;20073;-65
2022/09/09 14:12:10;;;;;;;8.02;2.00;;;;;;;;;;5014239;28;20037;-65
2022/09/09 14:14:36;;;;;;;7.03;1.98;;;;;;;;;;5011876;28;20026;-65
2022/09/09 14:17:03;;;;;;;15.85;3.00;;;;;;;;;;5014008;28;20057;-65
2022/09/09 14:19:30;;;;;;;15.98;2.83;;;;;;;;;;5010918;28;20458;-64
2022/09/09 14:21:57;;;;;;;12.52;2.85;;;;;;;;;;5011074;28;20021;-65
2022/09/09 14:24:23;;;;;;;13.82;3.70;;;;;;;;;;5009621;28;20026;-65
2022/09/09 14:26:49;;;;;;;14.93;2.88;;;;;;;;;;5010842;28;20038;-65
2022/09/09 14:29:15;;;;;;;12.18;3.15;;;;;;;;;;5012720;28;20497;-65
2022/09/09 14:31:41;;;;;;;7.93;2.53;;;;;;;;;;5008386;28;20076;-64
2022/09/09 14:34:08;;;;;;;15.95;3.20;;;;;;;;;;5011427;28;20026;-65
2022/09/09 14:36:34;;;;;;;24.25;3.47;;;;;;;;;;5008593;28;20505;-65
2022/09/09 14:39:00;;;;;;;25.52;3.53;;;;;;;;;;5007499;28;20069;-66
2022/09/09 14:41:29;;;;;;;17.80;3.47;;;;;;;;;;5007367;28;20470;-66
2022/09/09 14:43:55;;;;;;;15.35;3.35;;;;;;;;;;5008599;28;20112;-65
2022/09/09 14:46:21;;;;;;;25.20;3.40;;;;;;;;;;5009973;28;20505;-66
2022/09/09 14:48:50;;;;;;;15.25;3.08;;;;;;;;;;5005499;28;20109;-66
2022/09/09 14:51:22;;;;;;;17.23;3.38;;;;;;;;;;5005973;28;20025;-66